Time;durP1;ratioP1;P1;durP2;ratioP2;P2;SDS_P1;SDS_P2;PMS_P1;PMS_P2;Temp;Humidity;BMP_temperature;BMP_pressure;BME280_temperature;BME280_humidity;BME280_pressure;Samples;Min_cycle;Max_cycle;Signal;HPM_P1;HPM_P2
2022/02/20 00:01:42;;;;;;;11.82;3.92;;;8.30;99.90;;;;;;5085896;28;20445;-78
2022/02/20 00:04:08;;;;;;;10.30;3.80;;;8.30;99.90;;;;;;5086555;28;20107;-78
2022/02/20 00:06:33;;;;;;;12.45;4.32;;;8.20;99.90;;;;;;5084335;28;20020;-79
2022/02/20 00:08:59;;;;;;;12.85;4.75;;;8.20;99.90;;;;;;5091832;28;20024;-78
2022/02/20 00:11:25;;;;;;;13.00;4.68;;;8.30;99.90;;;;;;5087357;28;20066;-78
2022/02/20 00:13:52;;;;;;;11.18;4.32;;;8.20;99.90;;;;;;5088059;28;20028;-77
2022/02/20 00:16:17;;;;;;;9.00;4.57;;;8.20;99.90;;;;;;5088970;28;20031;-77
2022/02/20 00:18:45;;;;;;;9.48;4.35;;;8.10;99.90;;;;;;5090165;28;20033;-77
2022/02/20 00:21:10;;;;;;;6.97;3.33;;;8.00;99.90;;;;;;5087138;28;20028;-78
2022/02/20 00:23:36;;;;;;;11.90;3.90;;;8.00;99.90;;;;;;5091702;28;20024;-77
2022/02/20 00:26:02;;;;;;;13.32;3.83;;;7.90;99.90;;;;;;5095456;28;20024;-78
2022/02/20 00:28:27;;;;;;;8.68;4.07;;;7.80;99.90;;;;;;5090759;28;20028;-77
2022/02/20 00:30:53;;;;;;;9.98;3.80;;;7.70;99.90;;;;;;5098867;28;20051;-77
2022/02/20 00:33:19;;;;;;;8.43;3.30;;;7.70;99.90;;;;;;5089621;28;20073;-78
2022/02/20 00:35:45;;;;;;;14.00;3.75;;;7.60;99.90;;;;;;5083511;28;20020;-77
2022/02/20 00:38:11;;;;;;;12.75;3.20;;;7.60;99.90;;;;;;5085693;28;20032;-77
2022/02/20 00:40:37;;;;;;;14.40;3.70;;;7.60;99.90;;;;;;5087719;28;20384;-77
2022/02/20 00:43:03;;;;;;;10.18;3.50;;;7.60;99.90;;;;;;5091573;28;20083;-78
2022/02/20 00:45:30;;;;;;;7.13;2.72;;;7.60;99.90;;;;;;5088930;28;20024;-76
2022/02/20 00:47:57;;;;;;;10.73;3.58;;;7.70;99.90;;;;;;5091770;28;20024;-77
2022/02/20 00:50:24;;;;;;;14.82;3.13;;;7.60;99.90;;;;;;5091896;28;20047;-77
2022/02/20 00:52:50;;;;;;;7.38;3.10;;;7.50;99.90;;;;;;5084495;28;20027;-77
2022/02/20 00:55:16;;;;;;;9.20;3.47;;;7.60;99.90;;;;;;5093319;28;20020;-77
2022/02/20 00:57:41;;;;;;;12.25;3.47;;;7.60;99.90;;;;;;5093188;28;20540;-76
2022/02/20 01:00:09;;;;;;;10.98;2.78;;;7.40;99.90;;;;;;5091302;28;20091;-77
2022/02/20 01:02:35;;;;;;;8.73;2.63;;;7.50;99.90;;;;;;5089366;28;20023;-77
2022/02/20 01:05:02;;;;;;;7.82;2.60;;;7.50;99.90;;;;;;5090893;28;20028;-78
2022/02/20 01:07:27;;;;;;;9.30;3.45;;;7.50;99.90;;;;;;5086014;28;20036;-77
2022/02/20 01:09:53;;;;;;;12.27;3.03;;;7.50;99.90;;;;;;5092688;28;20081;-77
2022/02/20 01:12:19;;;;;;;10.80;3.42;;;7.60;99.90;;;;;;5092220;28;20035;-78
2022/02/20 01:14:45;;;;;;;8.02;2.85;;;7.60;99.90;;;;;;5092487;28;20146;-77
2022/02/20 01:17:11;;;;;;;13.15;2.88;;;7.60;99.90;;;;;;5090737;28;20174;-77
2022/02/20 01:19:38;;;;;;;11.68;2.80;;;7.70;99.90;;;;;;5085965;28;20397;-77
2022/02/20 01:22:04;;;;;;;6.80;2.90;;;7.60;99.90;;;;;;5087371;28;20036;-77
2022/02/20 01:24:30;;;;;;;8.50;2.55;;;7.70;99.90;;;;;;5085760;28;20024;-77
2022/02/20 01:26:55;;;;;;;9.32;3.00;;;7.60;99.90;;;;;;5092404;28;20034;-77
2022/02/20 01:29:22;;;;;;;9.70;3.28;;;7.60;99.90;;;;;;5085598;28;20032;-77
2022/02/20 01:31:49;;;;;;;10.50;2.70;;;7.70;99.90;;;;;;5087137;28;20097;-77
2022/02/20 01:34:15;;;;;;;9.43;2.72;;;7.70;99.90;;;;;;5091949;28;20472;-77
2022/02/20 01:36:40;;;;;;;7.75;3.10;;;7.70;99.90;;;;;;5088692;28;20077;-77
2022/02/20 01:39:06;;;;;;;8.68;3.00;;;7.60;99.90;;;;;;5090083;28;20039;-77
2022/02/20 01:41:31;;;;;;;8.50;2.55;;;7.70;99.90;;;;;;5085432;28;20031;-77
2022/02/20 01:43:57;;;;;;;6.57;2.67;;;7.80;99.90;;;;;;5089241;28;20024;-77
2022/02/20 01:46:23;;;;;;;13.25;2.53;;;7.60;99.90;;;;;;5090994;28;20031;-77
2022/02/20 01:48:48;;;;;;;7.32;2.42;;;7.70;99.90;;;;;;5091308;28;20024;-77
2022/02/20 01:51:14;;;;;;;11.18;2.80;;;7.70;99.90;;;;;;5086889;28;20119;-77
2022/02/20 01:53:40;;;;;;;5.70;2.55;;;7.60;99.90;;;;;;5090663;28;20024;-77
2022/02/20 01:56:06;;;;;;;8.40;2.85;;;7.60;99.90;;;;;;5086926;28;20145;-77
2022/02/20 01:58:32;;;;;;;5.60;2.65;;;7.70;99.90;;;;;;5089677;28;20036;-77
2022/02/20 02:01:00;;;;;;;8.98;2.95;;;7.60;99.90;;;;;;5085624;28;20112;-77
2022/02/20 02:03:25;;;;;;;11.90;3.33;;;7.60;99.90;;;;;;5088813;28;20381;-76
2022/02/20 02:05:51;;;;;;;10.65;3.13;;;7.60;99.90;;;;;;5089720;28;20020;-77
2022/02/20 02:08:18;;;;;;;10.82;3.22;;;7.60;99.90;;;;;;5087561;28;20025;-76
2022/02/20 02:10:44;;;;;;;11.30;3.40;;;7.60;99.90;;;;;;5087428;28;20031;-77
2022/02/20 02:13:10;;;;;;;8.75;3.35;;;7.60;99.90;;;;;;5091044;28;20028;-77
2022/02/20 02:15:51;;;;;;;8.85;3.50;;;7.70;99.90;;;;;;5085902;28;20366;-77
2022/02/20 02:18:18;;;;;;;8.57;4.32;;;7.70;99.90;;;;;;5090262;28;20614;-78
2022/02/20 02:20:44;;;;;;;10.98;4.13;;;7.60;99.90;;;;;;5090575;28;20048;-77
2022/02/20 02:23:11;;;;;;;8.75;3.92;;;7.60;99.90;;;;;;5092246;28;20441;-78
2022/02/20 02:25:38;;;;;;;14.05;4.28;;;7.50;99.90;;;;;;5091974;28;20039;-77
2022/02/20 02:28:05;;;;;;;7.80;4.50;;;7.60;99.90;;;;;;5083861;28;20024;-77
2022/02/20 02:30:31;;;;;;;11.48;4.47;;;7.50;99.90;;;;;;5088745;28;20468;-77
2022/02/20 02:32:56;;;;;;;10.23;4.82;;;7.40;99.90;;;;;;5091365;28;20482;-77
2022/02/20 02:35:22;;;;;;;9.35;4.43;;;7.40;99.90;;;;;;5085781;28;20032;-77
2022/02/20 02:37:48;;;;;;;10.13;4.88;;;7.50;99.90;;;;;;5086445;28;20479;-77
2022/02/20 02:40:13;;;;;;;11.25;5.20;;;7.40;99.90;;;;;;5089384;28;20028;-77
2022/02/20 02:42:39;;;;;;;8.55;5.38;;;7.40;99.90;;;;;;5089057;28;20119;-76
2022/02/20 02:45:06;;;;;;;9.45;5.70;;;7.30;99.90;;;;;;5094749;28;20380;-76
2022/02/20 02:47:31;;;;;;;9.75;6.88;;;7.40;99.90;;;;;;5094730;28;20043;-76
2022/02/20 02:49:57;;;;;;;14.18;6.25;;;7.20;99.90;;;;;;5088703;28;20417;-77
2022/02/20 02:52:22;;;;;;;9.88;5.88;;;7.20;99.90;;;;;;5085219;28;20090;-76
2022/02/20 02:54:48;;;;;;;12.93;6.85;;;7.20;99.90;;;;;;5086605;28;20496;-76
2022/02/20 02:57:14;;;;;;;11.30;6.70;;;7.20;99.90;;;;;;5081464;28;20046;-77
2022/02/20 02:59:40;;;;;;;14.77;6.70;;;7.20;99.90;;;;;;5089834;28;20032;-77
2022/02/20 03:02:07;;;;;;;11.50;7.32;;;7.10;99.90;;;;;;5082462;28;20031;-77
2022/02/20 03:04:33;;;;;;;11.38;7.00;;;7.10;99.90;;;;;;5086291;28;20034;-76
2022/02/20 03:06:58;;;;;;;12.60;6.82;;;7.20;99.90;;;;;;5086873;28;20020;-77
2022/02/20 03:09:24;;;;;;;12.32;8.32;;;7.30;99.90;;;;;;5085824;28;20016;-77
2022/02/20 03:11:50;;;;;;;11.23;7.50;;;7.40;99.90;;;;;;5089950;28;20028;-77
2022/02/20 03:14:16;;;;;;;9.75;7.30;;;7.50;99.90;;;;;;5083902;28;20043;-77
2022/02/20 03:16:41;;;;;;;10.45;7.18;;;7.50;99.90;;;;;;5090313;28;20051;-76
2022/02/20 03:19:08;;;;;;;11.55;7.05;;;7.50;99.90;;;;;;5084560;28;20503;-76
2022/02/20 03:21:34;;;;;;;17.60;7.30;;;7.50;99.90;;;;;;5086397;28;20020;-76
2022/02/20 03:24:00;;;;;;;12.60;7.35;;;7.50;99.90;;;;;;5085466;28;20397;-76
2022/02/20 03:26:25;;;;;;;9.35;6.35;;;7.50;99.90;;;;;;5089790;28;20138;-76
2022/02/20 03:28:51;;;;;;;12.70;6.30;;;7.40;99.90;;;;;;5079731;28;20107;-76
2022/02/20 03:31:17;;;;;;;12.55;7.30;;;7.40;99.90;;;;;;5086306;28;20027;-77
2022/02/20 03:33:43;;;;;;;11.50;6.20;;;7.40;99.90;;;;;;5090347;28;20081;-76
2022/02/20 03:36:09;;;;;;;14.27;6.57;;;7.40;99.90;;;;;;5084569;28;20476;-76
2022/02/20 03:38:35;;;;;;;12.38;6.25;;;7.40;99.90;;;;;;5090091;28;20149;-77
2022/02/20 03:41:02;;;;;;;15.90;7.10;;;7.40;99.90;;;;;;5086395;28;20044;-77
2022/02/20 03:43:27;;;;;;;10.77;6.97;;;7.40;99.90;;;;;;5090237;28;20500;-77
2022/02/20 03:45:53;;;;;;;18.60;7.00;;;7.50;99.90;;;;;;5090099;28;20052;-77
2022/02/20 03:48:18;;;;;;;13.52;7.57;;;7.40;99.90;;;;;;5090849;28;20024;-77
2022/02/20 03:50:44;;;;;;;15.98;6.80;;;7.30;99.90;;;;;;5096879;28;20059;-76
2022/02/20 03:53:10;;;;;;;13.27;6.57;;;7.30;99.90;;;;;;5085054;28;20024;-76
2022/02/20 03:55:35;;;;;;;16.98;6.85;;;7.30;99.90;;;;;;5090661;28;20036;-77
2022/02/20 03:58:01;;;;;;;11.48;7.05;;;7.30;99.90;;;;;;5092411;28;20060;-76
2022/02/20 04:00:27;;;;;;;15.35;6.68;;;7.30;99.90;;;;;;5093506;28;20512;-77
2022/02/20 04:02:53;;;;;;;15.75;7.70;;;7.40;99.90;;;;;;5089582;28;20032;-76
2022/02/20 04:05:20;;;;;;;14.55;7.68;;;7.40;99.90;;;;;;5090920;28;20085;-77
2022/02/20 04:07:46;;;;;;;11.93;7.30;;;7.40;99.90;;;;;;5091718;28;20485;-76
2022/02/20 04:10:14;;;;;;;13.98;7.93;;;7.30;99.90;;;;;;5086370;28;20060;-76
2022/02/20 04:12:40;;;;;;;15.35;7.95;;;7.30;99.90;;;;;;5094047;28;20024;-77
2022/02/20 04:15:07;;;;;;;15.50;7.53;;;7.30;99.90;;;;;;5085445;28;20036;-77
2022/02/20 04:17:39;;;;;;;12.35;8.13;;;7.30;99.90;;;;;;5092528;28;20022;-77
2022/02/20 04:20:06;;;;;;;15.13;7.80;;;7.30;99.90;;;;;;5082945;28;20275;-77
2022/02/20 04:22:32;;;;;;;15.25;7.10;;;7.30;99.90;;;;;;5086811;28;20393;-77
2022/02/20 04:24:57;;;;;;;14.68;7.32;;;7.30;99.90;;;;;;5085346;28;20024;-77
2022/02/20 04:27:23;;;;;;;14.43;7.68;;;7.30;99.90;;;;;;5093534;28;20020;-77
2022/02/20 04:29:48;;;;;;;16.42;7.35;;;7.30;99.90;;;;;;5088773;28;20039;-77
2022/02/20 04:32:14;;;;;;;21.23;7.40;;;7.40;99.90;;;;;;5090947;28;20028;-77
2022/02/20 04:34:39;;;;;;;16.92;6.18;;;7.30;99.90;;;;;;5088319;28;20020;-76
2022/02/20 04:37:05;;;;;;;15.10;6.35;;;7.30;99.90;;;;;;5088614;28;20461;-77
2022/02/20 04:39:31;;;;;;;13.27;6.07;;;7.40;99.90;;;;;;5090631;28;20028;-77
2022/02/20 04:41:58;;;;;;;17.13;5.85;;;7.20;99.90;;;;;;5085813;28;20154;-76
2022/02/20 04:44:25;;;;;;;16.38;6.18;;;7.20;99.90;;;;;;5091292;28;20032;-77
2022/02/20 04:46:50;;;;;;;16.90;6.47;;;7.30;99.90;;;;;;5088803;28;20023;-76
2022/02/20 04:49:16;;;;;;;10.82;5.20;;;7.30;99.90;;;;;;5093029;28;20028;-76
2022/02/20 04:51:42;;;;;;;16.63;5.65;;;7.30;99.90;;;;;;5085828;28;20146;-77
2022/02/20 04:54:07;;;;;;;13.63;5.18;;;7.30;99.90;;;;;;5092471;28;20373;-76
2022/02/20 04:56:33;;;;;;;13.15;5.35;;;7.40;99.90;;;;;;5087493;28;20013;-77
2022/02/20 04:58:59;;;;;;;15.80;5.05;;;7.30;99.90;;;;;;5089153;28;20032;-77
2022/02/20 05:01:25;;;;;;;14.82;4.55;;;7.30;99.90;;;;;;5089237;28;20114;-76
2022/02/20 05:03:51;;;;;;;17.75;5.43;;;7.40;99.90;;;;;;5087975;28;20054;-77
2022/02/20 05:06:18;;;;;;;9.60;3.42;;;7.30;99.90;;;;;;5089209;28;20016;-77
2022/02/20 05:08:44;;;;;;;14.93;4.20;;;7.40;99.90;;;;;;5086709;28;20032;-76
2022/02/20 05:11:10;;;;;;;13.82;3.55;;;7.40;99.90;;;;;;5084470;28;20020;-76
2022/02/20 05:13:35;;;;;;;17.73;4.85;;;7.40;99.90;;;;;;5097819;28;20028;-75
2022/02/20 05:16:01;;;;;;;19.33;4.53;;;7.40;99.90;;;;;;5087756;28;20024;-76
2022/02/20 05:18:27;;;;;;;23.15;5.10;;;7.40;99.90;;;;;;5088214;28;20589;-75
2022/02/20 05:20:54;;;;;;;26.40;5.00;;;7.50;99.90;;;;;;5093654;28;20026;-76
2022/02/20 05:23:21;;;;;;;18.38;5.00;;;7.50;99.90;;;;;;5083312;28;20050;-76
2022/02/20 05:25:47;;;;;;;29.23;4.88;;;7.50;99.90;;;;;;5084288;28;20028;-76
2022/02/20 05:28:13;;;;;;;27.02;5.25;;;7.50;99.90;;;;;;5085750;28;20020;-76
2022/02/20 05:30:38;;;;;;;33.28;5.93;;;7.60;99.90;;;;;;5088479;28;20526;-76
2022/02/20 05:33:04;;;;;;;24.95;4.32;;;7.60;99.90;;;;;;5092666;28;20028;-76
2022/02/20 05:35:30;;;;;;;32.05;5.72;;;7.60;99.90;;;;;;5089596;28;20024;-75
2022/02/20 05:37:55;;;;;;;30.70;5.55;;;7.60;99.90;;;;;;5083821;28;20033;-76
2022/02/20 05:40:22;;;;;;;39.10;6.30;;;7.70;99.90;;;;;;5083042;28;20020;-76
2022/02/20 05:42:48;;;;;;;32.50;5.68;;;7.70;99.90;;;;;;5081357;28;20040;-76
2022/02/20 05:45:14;;;;;;;41.53;6.55;;;7.70;99.90;;;;;;5092757;28;20020;-76
2022/02/20 05:47:39;;;;;;;44.20;6.35;;;7.80;99.90;;;;;;5088556;28;20024;-76
2022/02/20 05:50:07;;;;;;;45.00;6.60;;;7.80;99.90;;;;;;5094479;28;20043;-76
2022/02/20 05:52:33;;;;;;;35.35;6.70;;;7.90;99.90;;;;;;5085191;28;20116;-76
2022/02/20 05:54:59;;;;;;;35.70;5.63;;;7.90;99.90;;;;;;5091120;28;20566;-76
2022/02/20 05:57:24;;;;;;;47.40;6.85;;;7.90;99.90;;;;;;5092348;28;20027;-77
2022/02/20 05:59:50;;;;;;;37.95;7.05;;;8.00;99.90;;;;;;5093288;28;20051;-76
2022/02/20 06:02:16;;;;;;;40.60;7.10;;;8.00;99.90;;;;;;5089285;28;20512;-76
2022/02/20 06:04:42;;;;;;;45.88;6.03;;;8.00;99.90;;;;;;5090889;28;20024;-76
2022/02/20 06:07:09;;;;;;;44.25;8.50;;;8.00;99.90;;;;;;5089838;28;20093;-76
2022/02/20 06:09:35;;;;;;;43.15;6.40;;;8.00;99.90;;;;;;5086109;28;20051;-76
2022/02/20 06:12:01;;;;;;;42.35;7.57;;;8.10;99.90;;;;;;5089841;28;20067;-77
2022/02/20 06:14:26;;;;;;;46.38;7.00;;;8.10;99.90;;;;;;5090071;28;20032;-76
2022/02/20 06:16:52;;;;;;;30.48;7.07;;;8.20;99.90;;;;;;5091042;28;20388;-76
2022/02/20 06:19:18;;;;;;;33.65;6.80;;;8.20;99.90;;;;;;5088043;28;20107;-77
2022/02/20 06:21:43;;;;;;;38.33;6.90;;;8.30;99.90;;;;;;5093188;28;20085;-77
2022/02/20 06:24:09;;;;;;;37.58;7.75;;;8.30;99.90;;;;;;5090598;28;20542;-77
2022/02/20 06:26:34;;;;;;;35.15;7.00;;;8.40;99.90;;;;;;5091131;28;20063;-77
2022/02/20 06:29:00;;;;;;;31.52;5.63;;;8.50;99.90;;;;;;5089920;28;20020;-77
2022/02/20 06:31:26;;;;;;;36.45;8.07;;;8.50;99.90;;;;;;5084220;28;20038;-76
2022/02/20 06:33:52;;;;;;;48.78;6.78;;;8.40;99.90;;;;;;5089769;28;20077;-76
2022/02/20 06:36:19;;;;;;;45.58;7.55;;;8.50;99.90;;;;;;5090970;28;20081;-76
2022/02/20 06:38:46;;;;;;;35.15;7.00;;;8.50;99.90;;;;;;5085031;28;20029;-76
2022/02/20 06:41:11;;;;;;;27.23;6.38;;;8.50;99.90;;;;;;5085016;28;20069;-76
2022/02/20 06:43:38;;;;;;;29.50;7.20;;;8.60;99.90;;;;;;5091298;28;20335;-77
2022/02/20 06:46:04;;;;;;;29.42;6.75;;;8.60;99.90;;;;;;5087342;28;20464;-77
2022/02/20 06:48:31;;;;;;;26.35;6.70;;;8.70;99.90;;;;;;5086764;28;20028;-77
2022/02/20 06:50:56;;;;;;;28.17;6.28;;;8.70;99.90;;;;;;5087050;28;20077;-77
2022/02/20 06:53:22;;;;;;;26.65;6.70;;;8.80;99.90;;;;;;5087352;28;20028;-77
2022/02/20 06:55:48;;;;;;;28.17;6.03;;;8.80;99.90;;;;;;5087237;28;20027;-78
2022/02/20 06:58:13;;;;;;;28.58;6.95;;;8.80;99.90;;;;;;5088744;28;20032;-77
2022/02/20 07:00:39;;;;;;;30.60;6.47;;;8.90;99.90;;;;;;5085309;28;20034;-77
2022/02/20 07:03:05;;;;;;;31.75;5.95;;;8.80;99.90;;;;;;5084537;28;20050;-78
2022/02/20 07:05:30;;;;;;;30.40;6.55;;;8.90;99.90;;;;;;5090938;28;20070;-77
2022/02/20 07:07:57;;;;;;;24.48;5.57;;;8.90;99.90;;;;;;5091827;28;20020;-77
2022/02/20 07:10:23;;;;;;;30.10;6.50;;;8.90;99.90;;;;;;5089868;28;20026;-77
2022/02/20 07:12:49;;;;;;;24.67;5.68;;;8.90;99.90;;;;;;5089479;28;20093;-77
2022/02/20 07:15:15;;;;;;;30.85;5.55;;;8.90;99.90;;;;;;5091505;28;20523;-77
2022/02/20 07:17:40;;;;;;;31.10;5.72;;;8.90;99.90;;;;;;5083678;28;20118;-77
2022/02/20 07:20:07;;;;;;;29.70;5.30;;;9.00;99.90;;;;;;5091296;28;20457;-76
2022/02/20 07:22:33;;;;;;;24.45;4.88;;;9.00;99.90;;;;;;5083014;28;20027;-77
2022/02/20 07:25:00;;;;;;;27.60;5.28;;;9.10;99.90;;;;;;5090113;28;20031;-77
2022/02/20 07:27:26;;;;;;;28.52;5.28;;;9.10;99.90;;;;;;5090719;28;20012;-76
2022/02/20 07:29:52;;;;;;;18.10;5.15;;;9.10;99.90;;;;;;5092612;28;20376;-77
2022/02/20 07:32:17;;;;;;;28.83;5.13;;;9.20;99.90;;;;;;5090755;28;20020;-76
2022/02/20 07:34:43;;;;;;;30.50;5.70;;;9.20;99.90;;;;;;5083621;28;20039;-77
2022/02/20 07:37:08;;;;;;;19.67;4.78;;;9.20;99.90;;;;;;5090240;28;20024;-76
2022/02/20 07:39:34;;;;;;;21.30;4.95;;;9.20;99.90;;;;;;5094101;28;20072;-76
2022/02/20 07:42:00;;;;;;;20.85;5.43;;;9.30;99.90;;;;;;5089609;28;20115;-77
2022/02/20 07:44:26;;;;;;;22.15;4.80;;;9.30;99.90;;;;;;5091365;28;20102;-77
2022/02/20 07:46:52;;;;;;;24.27;6.35;;;9.40;99.90;;;;;;5082971;28;20115;-77
2022/02/20 07:49:18;;;;;;;27.83;5.75;;;9.40;99.90;;;;;;5089086;28;20093;-77
2022/02/20 07:51:43;;;;;;;21.50;4.88;;;9.40;99.90;;;;;;5087111;28;20074;-76
2022/02/20 07:54:10;;;;;;;23.85;4.60;;;9.40;99.90;;;;;;5082284;28;20017;-77
2022/02/20 07:56:36;;;;;;;19.20;4.60;;;9.50;99.90;;;;;;5089126;28;20059;-76
2022/02/20 07:59:01;;;;;;;12.18;4.10;;;9.50;99.90;;;;;;5085518;28;20469;-77
2022/02/20 08:01:27;;;;;;;15.82;3.90;;;9.50;99.90;;;;;;5090445;28;20665;-77
2022/02/20 08:03:53;;;;;;;18.00;4.07;;;9.50;99.90;;;;;;5087641;28;20497;-77
2022/02/20 08:06:18;;;;;;;19.00;4.03;;;9.60;99.90;;;;;;5085861;28;20055;-77
2022/02/20 08:08:44;;;;;;;17.17;4.30;;;9.70;99.90;;;;;;5089070;28;20150;-78
2022/02/20 08:11:09;;;;;;;18.27;3.75;;;9.70;99.90;;;;;;5085223;28;20131;-77
2022/02/20 08:13:35;;;;;;;19.02;5.18;;;9.70;99.90;;;;;;5084972;28;20028;-77
2022/02/20 08:16:01;;;;;;;13.85;3.78;;;9.70;99.90;;;;;;5080143;28;20040;-77
2022/02/20 08:18:26;;;;;;;14.07;3.95;;;9.70;99.90;;;;;;5088817;28;20032;-77
2022/02/20 08:20:52;;;;;;;13.70;4.60;;;9.80;99.90;;;;;;5087183;28;20025;-77
2022/02/20 08:23:18;;;;;;;11.70;3.40;;;9.80;99.90;;;;;;5089317;28;20025;-76
2022/02/20 08:25:47;;;;;;;14.32;3.03;;;9.90;99.90;;;;;;5090151;28;20042;-77
2022/02/20 08:28:12;;;;;;;14.60;3.40;;;9.90;99.90;;;;;;5085237;28;20476;-77
2022/02/20 08:30:38;;;;;;;16.83;4.03;;;9.90;99.90;;;;;;5088058;28;20028;-77
2022/02/20 08:33:05;;;;;;;8.90;2.92;;;10.00;99.90;;;;;;5087732;28;20012;-77
2022/02/20 08:35:31;;;;;;;16.95;3.45;;;10.00;99.90;;;;;;5090071;28;20063;-77
2022/02/20 08:37:57;;;;;;;8.90;2.65;;;10.00;99.90;;;;;;5092433;28;20116;-77
2022/02/20 08:40:22;;;;;;;10.90;3.08;;;10.00;99.90;;;;;;5089627;28;20031;-78
2022/02/20 08:42:48;;;;;;;14.10;2.92;;;10.00;99.90;;;;;;5090151;28;20036;-76
2022/02/20 08:45:16;;;;;;;11.13;3.05;;;10.00;99.90;;;;;;5094606;28;20028;-76
2022/02/20 08:47:42;;;;;;;12.25;3.10;;;10.10;99.90;;;;;;5090641;28;20025;-76
2022/02/20 08:50:09;;;;;;;16.55;3.30;;;10.10;99.90;;;;;;5089494;28;20028;-75
2022/02/20 08:52:38;;;;;;;14.10;2.70;;;10.10;99.90;;;;;;5090951;28;20439;-75
2022/02/20 08:55:06;;;;;;;10.32;2.67;;;10.20;99.90;;;;;;5087677;28;20097;-75
2022/02/20 08:57:32;;;;;;;16.13;2.70;;;10.20;99.90;;;;;;5087891;28;20122;-76
2022/02/20 08:59:58;;;;;;;12.43;2.67;;;10.20;99.90;;;;;;5089446;28;20107;-76
2022/02/20 09:02:25;;;;;;;14.32;2.72;;;10.20;99.90;;;;;;5087144;28;20046;-75
2022/02/20 09:04:51;;;;;;;10.90;2.55;;;10.30;99.90;;;;;;5090418;28;20033;-76
2022/02/20 09:07:17;;;;;;;16.20;3.03;;;10.30;99.90;;;;;;5085852;28;20029;-76
2022/02/20 09:09:42;;;;;;;9.90;2.90;;;10.30;99.90;;;;;;5092407;28;20470;-75
2022/02/20 09:12:09;;;;;;;12.68;2.80;;;10.40;99.90;;;;;;5088545;28;20033;-77
2022/02/20 09:14:34;;;;;;;12.55;2.47;;;10.40;99.90;;;;;;5093706;28;20081;-76
2022/02/20 09:17:00;;;;;;;9.52;2.17;;;10.40;99.90;;;;;;5092239;28;20394;-75
2022/02/20 09:19:27;;;;;;;9.70;2.40;;;10.40;99.90;;;;;;5090128;28;20104;-76
2022/02/20 09:21:53;;;;;;;14.40;2.13;;;10.50;99.90;;;;;;5089456;28;20822;-77
2022/02/20 09:24:19;;;;;;;5.55;1.98;;;10.50;99.90;;;;;;5092463;28;20119;-76
2022/02/20 09:26:46;;;;;;;10.43;2.40;;;10.60;99.90;;;;;;5091851;28;20017;-76
2022/02/20 09:29:11;;;;;;;10.40;2.40;;;10.60;99.90;;;;;;5085624;28;20419;-76
2022/02/20 09:31:37;;;;;;;9.98;2.15;;;10.70;99.90;;;;;;5091751;28;20020;-75
2022/02/20 09:34:03;;;;;;;12.10;2.53;;;10.70;99.90;;;;;;5088032;28;20024;-76
2022/02/20 09:36:28;;;;;;;12.35;2.85;;;10.70;99.90;;;;;;5086226;28;20492;-75
2022/02/20 09:38:54;;;;;;;11.43;2.65;;;10.70;99.90;;;;;;5089617;28;20047;-74
2022/02/20 09:41:25;;;;;;;15.00;2.90;;;10.70;99.90;;;;;;5091576;28;20100;-75
2022/02/20 09:43:55;;;;;;;10.52;2.45;;;10.70;99.90;;;;;;5092091;28;20032;-75
2022/02/20 09:46:21;;;;;;;9.35;2.72;;;10.70;99.90;;;;;;5088509;28;20020;-76
2022/02/20 09:48:51;;;;;;;14.10;3.05;;;10.70;99.90;;;;;;5091119;28;20032;-75
2022/02/20 09:51:19;;;;;;;17.17;3.72;;;10.80;99.90;;;;;;5089532;28;20023;-75
2022/02/20 09:53:44;;;;;;;15.63;3.05;;;10.80;99.90;;;;;;5087422;28;20025;-76
2022/02/20 09:56:10;;;;;;;15.50;3.00;;;10.80;99.90;;;;;;5089773;28;20077;-75
2022/02/20 09:58:35;;;;;;;22.42;3.80;;;10.80;99.90;;;;;;5092127;28;20032;-75
2022/02/20 10:01:06;;;;;;;20.15;4.15;;;10.80;99.90;;;;;;5090171;28;20031;-75
2022/02/20 10:03:32;;;;;;;15.63;3.67;;;10.90;99.90;;;;;;5085847;28;20036;-76
2022/02/20 10:06:02;;;;;;;19.83;3.72;;;10.90;99.90;;;;;;5087170;28;20384;-76
2022/02/20 10:08:45;;;;;;;20.38;4.22;;;11.00;99.90;;;;;;5088365;28;20024;-75
2022/02/20 10:11:12;;;;;;;;;;;11.00;99.90;;;;;;5089224;28;20024;-74
2022/02/20 10:13:37;;;;;;;17.23;4.10;;;11.10;99.90;;;;;;5088872;28;19911;-75
2022/02/20 10:16:25;;;;;;;19.63;4.20;;;11.20;99.90;;;;;;5089871;28;20028;-75
2022/02/20 10:18:54;;;;;;;15.63;4.07;;;11.20;99.90;;;;;;5087234;28;20489;-76
2022/02/20 10:21:32;;;;;;;16.38;5.07;;;11.30;99.90;;;;;;5083507;28;20024;-75
2022/02/20 10:24:07;;;;;;;17.60;3.65;;;11.30;99.90;;;;;;5086713;28;20024;-76
2022/02/20 10:26:39;;;;;;;19.27;4.30;;;11.20;99.90;;;;;;5090925;28;20024;-75
2022/02/20 10:29:21;;;;;;;17.13;3.80;;;11.30;99.90;;;;;;5083701;28;20017;-75
2022/02/20 10:31:52;;;;;;;14.52;3.80;;;11.30;99.90;;;;;;5090637;28;20027;-75
2022/02/20 10:34:22;;;;;;;14.25;3.42;;;11.30;99.90;;;;;;5090141;28;20069;-74
2022/02/20 10:36:54;;;;;;;19.05;3.88;;;11.20;99.90;;;;;;5089899;28;20050;-76
2022/02/20 10:39:26;;;;;;;20.58;3.70;;;11.30;99.90;;;;;;5087092;28;20538;-77
2022/02/20 10:41:56;;;;;;;15.80;3.88;;;11.20;99.90;;;;;;5088584;28;20384;-75
2022/02/20 10:44:22;;;;;;;17.15;3.30;;;11.30;99.90;;;;;;5089932;28;20020;-75
2022/02/20 10:47:07;;;;;;;20.25;3.78;;;11.30;99.90;;;;;;5087215;28;20149;-76
2022/02/20 10:49:32;;;;;;;19.10;4.13;;;11.30;99.90;;;;;;5085952;28;20489;-75
2022/02/20 10:51:58;;;;;;;25.42;3.83;;;11.30;99.90;;;;;;5086565;28;20028;-75
2022/02/20 10:54:24;;;;;;;19.08;4.18;;;11.30;99.90;;;;;;5089905;28;20035;-74
2022/02/20 10:56:50;;;;;;;20.92;4.82;;;11.30;99.90;;;;;;5088781;28;20023;-74
2022/02/20 10:59:19;;;;;;;27.65;4.80;;;11.30;99.90;;;;;;5085809;28;20024;-74
2022/02/20 11:01:44;;;;;;;19.52;4.25;;;11.20;99.90;;;;;;5081562;28;20025;-76
2022/02/20 11:04:11;;;;;;;24.73;5.10;;;11.10;99.90;;;;;;5085136;28;20020;-75
2022/02/20 11:06:38;;;;;;;30.15;4.60;;;11.10;99.90;;;;;;5092271;28;20097;-75
2022/02/20 11:09:04;;;;;;;29.77;5.05;;;11.10;99.90;;;;;;5086352;28;20024;-75
2022/02/20 11:11:39;;;;;;;30.67;5.40;;;11.00;99.90;;;;;;5089964;28;20157;-75
2022/02/20 11:14:26;;;;;;;27.25;5.75;;;11.10;99.90;;;;;;5087727;28;20031;-76
2022/02/20 11:16:53;;;;;;;26.02;4.97;;;11.10;99.90;;;;;;5088732;28;20040;-76
2022/02/20 11:19:23;;;;;;;22.70;4.22;;;11.10;99.90;;;;;;5088558;28;20040;-76
2022/02/20 11:21:54;;;;;;;34.08;4.95;;;11.00;99.90;;;;;;5084923;28;20101;-75
2022/02/20 11:24:20;;;;;;;20.83;4.97;;;11.00;99.90;;;;;;5080562;28;20024;-75
2022/02/20 11:26:46;;;;;;;29.80;4.93;;;11.10;99.90;;;;;;5086506;28;20423;-76
2022/02/20 11:29:13;;;;;;;31.92;6.47;;;11.10;99.90;;;;;;5090270;28;20020;-77
2022/02/20 11:31:40;;;;;;;29.02;5.40;;;11.10;99.90;;;;;;5089584;28;20069;-78
2022/02/20 11:34:07;;;;;;;29.63;5.80;;;11.10;99.90;;;;;;5088010;28;20020;-77
2022/02/20 11:36:33;;;;;;;25.17;5.50;;;11.10;99.90;;;;;;5088378;28;20515;-77
2022/02/20 11:39:12;;;;;;;21.33;4.25;;;11.10;99.90;;;;;;5082844;28;20118;-77
2022/02/20 11:41:41;;;;;;;27.85;5.47;;;11.20;99.90;;;;;;5085657;28;20472;-76
2022/02/20 11:44:17;;;;;;;26.17;5.65;;;11.20;99.90;;;;;;5086727;28;20025;-79
2022/02/20 11:46:47;;;;;;;24.45;5.70;;;11.10;99.90;;;;;;5086412;28;20174;-78
2022/02/20 11:49:16;;;;;;;26.63;6.10;;;11.10;99.90;;;;;;5087268;28;20016;-78
2022/02/20 11:51:56;;;;;;;27.65;5.88;;;11.10;99.90;;;;;;5083558;28;20036;-76
2022/02/20 11:54:22;;;;;;;34.40;6.97;;;11.10;99.90;;;;;;5081404;28;20107;-77
2022/02/20 11:57:13;;;;;;;28.15;6.05;;;11.10;99.90;;;;;;5089104;28;20116;-77
2022/02/20 11:59:39;;;;;;;33.58;5.57;;;11.10;99.90;;;;;;5085027;28;20081;-76
2022/02/20 12:02:12;;;;;;;28.88;6.13;;;11.10;99.90;;;;;;5091488;28;20024;-77
2022/02/20 12:04:55;;;;;;;37.83;7.22;;;11.10;99.90;;;;;;5092246;28;20473;-77
2022/02/20 12:07:44;;;;;;;27.52;5.72;;;11.10;99.90;;;;;;5093796;28;20500;-77
2022/02/20 12:10:19;;;;;;;38.40;7.30;;;11.20;99.90;;;;;;5092030;28;20012;-80
2022/02/20 12:12:54;;;;;;;27.10;6.10;;;11.20;99.90;;;;;;5089307;28;20039;-78
2022/02/20 12:15:37;;;;;;;25.83;6.28;;;11.20;99.90;;;;;;5088964;28;20412;-78
2022/02/20 12:18:12;;;;;;;34.90;6.55;;;11.20;99.90;;;;;;5092797;28;20549;-78
2022/02/20 12:21:07;;;;;;;32.20;6.32;;;11.20;99.90;;;;;;5090626;28;20024;-78
2022/02/20 12:23:45;;;;;;;30.15;5.47;;;11.20;99.90;;;;;;5089391;28;20055;-79
2022/02/20 12:26:42;;;;;;;32.92;6.15;;;11.20;99.90;;;;;;5084947;28;20117;-78
2022/02/20 12:29:13;;;;;;;26.05;5.35;;;11.20;99.90;;;;;;5094122;28;20035;-78
2022/02/20 12:31:58;;;;;;;36.30;6.32;;;11.30;99.90;;;;;;5083302;28;20016;-75
2022/02/20 12:34:52;;;;;;;32.78;6.22;;;11.30;99.90;;;;;;5090717;28;20483;-76
2022/02/20 12:37:23;;;;;;;37.20;6.68;;;11.20;99.90;;;;;;5090284;28;20041;-76
2022/02/20 12:39:54;;;;;;;36.38;6.55;;;11.20;99.90;;;;;;5089279;28;20028;-76
2022/02/20 12:42:21;;;;;;;41.97;6.30;;;11.20;99.90;;;;;;5090040;28;20024;-76
2022/02/20 12:44:47;;;;;;;33.22;6.28;;;11.20;99.90;;;;;;5094930;28;20380;-77
2022/02/20 12:47:13;;;;;;;27.48;5.95;;;11.20;99.90;;;;;;5088675;28;20591;-77